createdAt,value
2023-03-02T17:34:14.292Z,98680.19
2023-03-02T17:36:41.560Z,98674.22
2023-03-02T17:39:08.081Z,98681.22
2023-03-02T17:41:35.731Z,98689.41
2023-03-02T17:44:03.107Z,98693.09
2023-03-02T17:46:32.345Z,98700.69
2023-03-02T17:49:00.787Z,98704.19
2023-03-02T17:51:28.919Z,98711.53
2023-03-02T17:53:56.011Z,98706.03
2023-03-02T17:56:25.425Z,98710.50
2023-03-02T17:59:01.047Z,98711.97
2023-03-02T18:01:29.356Z,98713.81
2023-03-02T18:03:56.003Z,98713.22
2023-03-02T18:06:22.928Z,98720.78
2023-03-02T18:08:51.251Z,98722.63
2023-03-02T18:11:21.012Z,98727.13
2023-03-02T18:13:47.661Z,98730.00
2023-03-02T18:16:14.531Z,98727.13
2023-03-02T18:18:41.131Z,98727.75
2023-03-02T18:21:07.728Z,98736.97
2023-03-02T18:23:34.519Z,98728.34
2023-03-02T18:26:01.118Z,98728.78
2023-03-02T18:28:29.097Z,98734.72
2023-03-02T18:30:55.723Z,98735.75
2023-03-02T18:33:22.296Z,98731.22
2023-03-02T18:35:48.850Z,98738.59
2023-03-02T18:38:15.357Z,98739.00
2023-03-02T18:40:41.900Z,98737.19
2023-03-02T18:43:08.516Z,98731.84
2023-03-02T18:45:35.383Z,98730.81
2023-03-02T18:48:02.342Z,98734.13
2023-03-02T18:50:29.815Z,98748.84
2023-03-02T18:52:56.396Z,98752.16
2023-03-02T18:55:24.636Z,98744.34
2023-03-02T18:57:53.808Z,98751.31
2023-03-02T19:00:26.621Z,98756.66
2023-03-02T19:02:54.228Z,98757.06
2023-03-02T19:05:20.889Z,98756.28
2023-03-02T19:07:47.846Z,98758.72
2023-03-02T19:10:14.941Z,98767.38
2023-03-02T19:12:41.870Z,98765.69
2023-03-02T19:15:10.493Z,98758.50
2023-03-02T19:17:39.675Z,98761.59
2023-03-02T19:20:07.601Z,98763.84
2023-03-02T19:22:34.620Z,98770.38
2023-03-02T19:25:01.131Z,98775.91
2023-03-02T19:27:27.844Z,98772.41
2023-03-02T19:29:54.579Z,98769.75
2023-03-02T19:32:21.196Z,98774.44
2023-03-02T19:34:48.676Z,98773.41
2023-03-02T19:37:15.654Z,98774.69
2023-03-02T19:39:43.337Z,98776.72
2023-03-02T19:42:10.240Z,98773.03
2023-03-02T19:44:37.155Z,98769.13
2023-03-02T19:47:04.509Z,98774.44
2023-03-02T19:49:31.039Z,98770.56
2023-03-02T19:51:58.998Z,98774.88
2023-03-02T19:54:25.803Z,98774.03
2023-03-02T19:56:54.870Z,98770.97
2023-03-02T19:59:22.923Z,98778.31
2023-03-02T20:01:51.266Z,98772.78
2023-03-02T20:04:18.816Z,98771.38
2023-03-02T20:06:45.445Z,98778.09
2023-03-02T20:09:14.490Z,98770.09
2023-03-02T20:11:41.065Z,98773.81
2023-03-02T20:14:07.634Z,98779.13
2023-03-02T20:16:35.615Z,98780.75
2023-03-02T20:19:03.353Z,98772.16
2023-03-02T20:21:31.222Z,98782.19
2023-03-02T20:23:57.753Z,98787.69
2023-03-02T20:26:25.696Z,98787.28
2023-03-02T20:28:55.466Z,98786.84
2023-03-02T20:31:24.547Z,98785.59
2023-03-02T20:33:53.995Z,98785.38
2023-03-02T20:36:29.521Z,98791.94
2023-03-02T20:39:00.292Z,98796.63
2023-03-02T20:41:27.173Z,98797.38
2023-03-02T20:43:53.777Z,98791.66
2023-03-02T20:46:24.785Z,98790.06
2023-03-02T20:48:52.116Z,98795.63
2023-03-02T20:51:19.714Z,98795.41
2023-03-02T20:53:47.043Z,98788.84
2023-03-02T20:56:18.634Z,98798.22
2023-03-02T20:58:47.061Z,98792.47
2023-03-02T21:01:15.749Z,98803.53
2023-03-02T21:03:42.492Z,98808.06
2023-03-02T21:06:09.932Z,98801.88
2023-03-02T21:08:39.609Z,98799.41
2023-03-02T21:11:15.629Z,98802.88
2023-03-02T21:13:45.787Z,98804.97
2023-03-02T21:16:20.572Z,98806.41
2023-03-02T21:18:47.383Z,98801.34
2023-03-02T21:21:13.891Z,98806.84
2023-03-02T21:23:41.705Z,98800.28
2023-03-02T21:26:10.582Z,98807.38
2023-03-02T21:28:37.408Z,98800.44
2023-03-02T21:31:04.103Z,98811.31
2023-03-02T21:33:30.690Z,98810.69
2023-03-02T21:35:57.913Z,98797.78
2023-03-02T21:38:24.497Z,98803.09
2023-03-02T21:40:50.958Z,98806.78
2023-03-02T21:43:18.276Z,98794.06
2023-03-02T21:45:44.737Z,98799.00
2023-03-02T21:48:13.850Z,98796.97
2023-03-02T21:50:40.928Z,98789.38
2023-03-02T21:53:08.490Z,98788.38
2023-03-02T21:55:35.455Z,98779.72
2023-03-02T21:58:02.438Z,98787.91
2023-03-02T22:00:35.800Z,98781.34
2023-03-02T22:03:03.440Z,98790.34
2023-03-02T22:05:30.722Z,98780.47
2023-03-02T22:07:57.434Z,98785.41
2023-03-02T22:10:31.393Z,98784.97
2023-03-02T22:13:14.528Z,98776.19
2023-03-02T22:15:41.456Z,98782.31
2023-03-02T22:18:16.897Z,98776.19
2023-03-02T22:20:45.557Z,98776.19
2023-03-02T22:23:14.211Z,98781.88
2023-03-02T22:25:43.397Z,98784.56
2023-03-02T22:28:28.328Z,98780.00
2023-03-02T22:30:58.892Z,98781.63
2023-03-02T22:33:29.535Z,98780.16
2023-03-02T22:36:13.684Z,98770.94
2023-03-02T22:38:40.137Z,98777.44
2023-03-02T22:41:12.981Z,98772.44
2023-03-02T22:43:39.597Z,98773.41
2023-03-02T22:46:21.818Z,98765.44
2023-03-02T22:48:50.270Z,98770.38
2023-03-02T22:51:20.594Z,98769.81
2023-03-02T22:53:52.856Z,98778.06
2023-03-02T22:56:37.242Z,98775.88
2023-03-02T22:59:12.229Z,98777.53
2023-03-02T23:01:42.120Z,98773.38
2023-03-02T23:04:08.640Z,98776.69
2023-03-02T23:06:45.184Z,98770.53
2023-03-02T23:09:14.543Z,98771.53
2023-03-02T23:11:41.821Z,98767.25
2023-03-02T23:14:29.337Z,98763.81
2023-03-02T23:17:08.300Z,98768.28
2023-03-02T23:19:34.767Z,98765.56
2023-03-02T23:22:01.231Z,98763.56
2023-03-02T23:24:27.804Z,98755.94
2023-03-02T23:26:54.442Z,98759.81
2023-03-02T23:29:21.580Z,98754.72
2023-03-02T23:31:49.056Z,98753.91
2023-03-02T23:34:16.459Z,98754.13
2023-03-02T23:36:43.119Z,98749.59
2023-03-02T23:39:10.421Z,98747.56
2023-03-02T23:41:38.546Z,98743.88
2023-03-02T23:44:06.233Z,98742.84
2023-03-02T23:46:33.446Z,98741.81
2023-03-02T23:49:00.620Z,98739.59
2023-03-02T23:51:27.216Z,98742.63
2023-03-02T23:53:54.165Z,98741.81
2023-03-02T23:56:21.403Z,98738.91
2023-03-02T23:58:48.119Z,98730.69
